Time,TemperatureF,DewpointF,PressureIn,WindDirection,WindDirectionDegrees,WindSpeedMPH,WindSpeedGustMPH,Humidity,HourlyPrecipIn,Conditions,Clouds,dailyrainin,SolarRadiationWatts/m^2,SoftwareType,DateUTC
2013-01-17 00:05:00,34.0,24.0,-100.00,WSW,256,13.0,29.0,67,0.00,,,0.00,0.000000,,2013-01-17 05:05:00,
2013-01-17 00:12:00,34.0,24.0,-100.00,WSW,256,13.0,29.0,67,0.00,,,0.00,0.000000,,2013-01-17 05:12:00,
2013-01-17 00:22:00,34.0,24.0,-100.00,WSW,256,13.0,29.0,67,0.00,,,0.00,0.000000,,2013-01-17 05:22:00,
2013-01-17 00:53:00,34.0,26.0,-100.00,WSW,256,13.0,27.0,72,0.00,,,0.00,0.000000,,2013-01-17 05:53:00,
2013-01-17 01:03:00,34.0,26.0,-100.00,WSW,256,13.0,27.0,72,0.00,,,0.00,0.000000,,2013-01-17 06:03:00,
2013-01-17 01:12:00,34.0,26.0,-100.00,WSW,256,13.0,27.0,72,0.00,,,0.00,0.000000,,2013-01-17 06:12:00,
2013-01-17 01:22:00,34.0,26.0,-100.00,WSW,256,13.0,27.0,72,0.00,,,0.00,0.000000,,2013-01-17 06:22:00,
2013-01-17 01:53:00,33.0,27.0,-100.00,WSW,255,12.0,24.0,78,0.00,,,0.00,0.000000,,2013-01-17 06:53:00,
2013-01-17 02:02:00,33.0,27.0,-100.00,WSW,255,12.0,24.0,78,0.00,,,0.00,0.000000,,2013-01-17 07:02:00,
2013-01-17 02:12:00,33.0,27.0,-100.00,WSW,255,12.0,24.0,78,0.00,,,0.00,0.000000,,2013-01-17 07:12:00,
2013-01-17 02:22:00,33.0,27.0,-100.00,WSW,255,12.0,24.0,78,0.00,,,0.00,0.000000,,2013-01-17 07:22:00,
2013-01-17 02:53:00,33.0,27.0,-100.00,WSW,255,12.0,24.0,79,0.00,,,0.00,0.000000,,2013-01-17 07:53:00,
2013-01-17 03:02:00,33.0,27.0,-100.00,WSW,255,12.0,24.0,79,0.00,,,0.00,0.000000,,2013-01-17 08:02:00,
2013-01-17 03:12:00,33.0,27.0,-100.00,WSW,255,12.0,24.0,79,0.00,,,0.00,0.000000,,2013-01-17 08:12:00,
2013-01-17 03:22:00,33.0,27.0,-100.00,WSW,255,12.0,24.0,79,0.00,,,0.00,0.000000,,2013-01-17 08:22:00,
2013-01-17 03:53:00,34.0,25.0,-100.00,WSW,257,11.0,23.0,69,0.00,,,0.00,0.000000,,2013-01-17 08:53:00,
2013-01-17 04:03:00,34.0,25.0,-100.00,WSW,257,11.0,23.0,69,0.00,,,0.00,0.000000,,2013-01-17 09:03:00,
2013-01-17 04:12:00,34.0,25.0,-100.00,WSW,257,11.0,23.0,69,0.00,,,0.00,0.000000,,2013-01-17 09:12:00,
2013-01-17 04:22:00,34.0,25.0,-100.00,WSW,257,11.0,23.0,69,0.00,,,0.00,0.000000,,2013-01-17 09:22:00,
2013-01-17 04:53:00,34.0,25.0,-100.00,WSW,255,10.0,22.0,68,0.00,,,0.00,0.000000,,2013-01-17 09:53:00,
2013-01-17 05:02:00,34.0,25.0,-100.00,WSW,255,10.0,22.0,68,0.00,,,0.00,0.000000,,2013-01-17 10:02:00,
2013-01-17 05:12:00,34.0,25.0,-100.00,WSW,255,10.0,22.0,68,0.00,,,0.00,0.000000,,2013-01-17 10:12:00,
2013-01-17 05:22:00,34.0,25.0,-100.00,WSW,255,10.0,22.0,68,0.00,,,0.00,0.000000,,2013-01-17 10:22:00,
2013-01-17 05:53:00,34.0,25.0,-100.00,West,268,10.0,20.0,70,0.00,,,0.00,0.000000,,2013-01-17 10:53:00,
2013-01-17 06:03:00,34.0,25.0,-100.00,West,268,10.0,20.0,70,0.00,,,0.00,0.000000,,2013-01-17 11:03:00,
2013-01-17 06:12:00,34.0,25.0,-100.00,West,268,10.0,20.0,70,0.00,,,0.00,0.000000,,2013-01-17 11:12:00,
2013-01-17 06:22:00,34.0,25.0,-100.00,West,268,10.0,20.0,70,0.00,,,0.00,0.000000,,2013-01-17 11:22:00,
2013-01-17 06:53:00,31.0,23.0,-100.00,NW,323,8.0,18.0,71,0.00,,,0.00,0.000000,,2013-01-17 11:53:00,
2013-01-17 07:03:00,31.0,23.0,-100.00,NW,323,8.0,18.0,71,0.00,,,0.00,0.000000,,2013-01-17 12:03:00,
2013-01-17 07:12:00,31.0,23.0,-100.00,NW,323,8.0,18.0,71,0.00,,,0.00,0.000000,,2013-01-17 12:12:00,
2013-01-17 07:23:00,31.0,23.0,-100.00,NW,323,8.0,18.0,71,0.00,,,0.00,0.000000,,2013-01-17 12:23:00,
2013-01-17 07:53:00,28.0,19.0,-100.00,NNW,345,10.0,21.0,69,0.00,,,0.00,0.000000,,2013-01-17 12:53:00,
2013-01-17 08:03:00,28.0,19.0,-100.00,NNW,345,10.0,21.0,69,0.00,,,0.00,0.000000,,2013-01-17 13:03:00,
2013-01-17 08:12:00,28.0,19.0,-100.00,NNW,345,10.0,21.0,69,0.00,,,0.00,0.000000,,2013-01-17 13:12:00,
2013-01-17 08:23:00,28.0,19.0,-100.00,NNW,345,10.0,21.0,69,0.00,,,0.00,0.000000,,2013-01-17 13:23:00,
2013-01-17 08:53:00,25.0,15.0,-100.00,North,350,9.0,18.0,65,0.00,,,0.00,2.000000,,2013-01-17 13:53:00,
2013-01-17 09:03:00,25.0,15.0,-100.00,North,350,9.0,18.0,65,0.00,,,0.00,2.000000,,2013-01-17 14:03:00,
2013-01-17 09:13:00,25.0,15.0,-100.00,North,350,9.0,18.0,65,0.00,,,0.00,2.000000,,2013-01-17 14:13:00,
2013-01-17 09:23:00,25.0,15.0,-100.00,North,350,9.0,18.0,65,0.00,,,0.00,2.000000,,2013-01-17 14:23:00,
2013-01-17 09:53:00,24.0,14.0,-100.00,North,352,5.0,15.0,64,0.00,,,0.00,24.000000,,2013-01-17 14:53:00,
2013-01-17 10:03:00,24.0,14.0,-100.00,North,352,5.0,15.0,64,0.00,,,0.00,24.000000,,2013-01-17 15:03:00,
2013-01-17 10:13:00,24.0,14.0,-100.00,North,352,5.0,15.0,64,0.00,,,0.00,24.000000,,2013-01-17 15:13:00,
2013-01-17 10:23:00,24.0,14.0,-100.00,North,352,5.0,15.0,64,0.00,,,0.00,24.000000,,2013-01-17 15:23:00,
2013-01-17 10:53:00,23.0,12.0,-100.00,NNE,13,7.0,15.0,63,0.00,,,0.00,59.000000,,2013-01-17 15:53:00,
2013-01-17 11:03:00,23.0,12.0,-100.00,NNE,13,7.0,15.0,63,0.00,,,0.00,59.000000,,2013-01-17 16:03:00,
2013-01-17 11:12:00,23.0,12.0,-100.00,NNE,13,7.0,15.0,63,0.00,,,0.00,59.000000,,2013-01-17 16:12:00,
2013-01-17 11:23:00,23.0,12.0,-100.00,NNE,13,7.0,15.0,63,0.00,,,0.00,59.000000,,2013-01-17 16:23:00,
2013-01-17 11:53:00,22.0,12.0,-100.00,NNE,12,7.0,11.0,65,0.00,,,-99.99,60.000000,,2013-01-17 16:53:00,
2013-01-17 12:03:00,22.0,12.0,-100.00,NNE,12,7.0,11.0,65,0.00,,,-99.99,60.000000,,2013-01-17 17:03:00,
2013-01-17 12:13:00,22.0,12.0,-100.00,NNE,12,7.0,11.0,65,0.00,,,-99.99,60.000000,,2013-01-17 17:13:00,
2013-01-17 12:23:00,22.0,12.0,-100.00,NNE,12,7.0,11.0,65,0.00,,,-99.99,60.000000,,2013-01-17 17:23:00,
2013-01-17 12:54:00,21.0,12.0,-100.00,NE,42,6.0,11.0,68,0.00,,,-99.99,55.000000,,2013-01-17 17:54:00,
2013-01-17 13:04:00,21.0,12.0,-100.00,NE,42,6.0,11.0,68,0.00,,,-99.99,55.000000,,2013-01-17 18:04:00,
2013-01-17 13:13:00,21.0,12.0,-100.00,NE,42,6.0,11.0,68,0.00,,,-99.99,55.000000,,2013-01-17 18:13:00,
2013-01-17 13:23:00,21.0,12.0,-100.00,NE,42,6.0,11.0,68,0.00,,,-99.99,55.000000,,2013-01-17 18:23:00,
2013-01-17 13:54:00,21.0,11.0,-100.00,NNE,13,5.0,10.0,64,0.00,,,0.00,96.000000,,2013-01-17 18:54:00,
2013-01-17 14:04:00,21.0,11.0,-100.00,NNE,13,5.0,10.0,64,0.00,,,0.00,96.000000,,2013-01-17 19:04:00,
2013-01-17 14:13:00,21.0,11.0,-100.00,NNE,13,5.0,10.0,64,0.00,,,0.00,96.000000,,2013-01-17 19:13:00,
2013-01-17 14:23:00,21.0,11.0,-100.00,NNE,13,5.0,10.0,64,0.00,,,0.00,96.000000,,2013-01-17 19:23:00,
2013-01-17 14:54:00,21.0,11.0,-100.00,NNE,26,7.0,10.0,64,0.00,,,0.00,100.000000,,2013-01-17 19:54:00,
2013-01-17 15:03:00,21.0,11.0,-100.00,NNE,26,7.0,10.0,64,0.00,,,0.00,100.000000,,2013-01-17 20:03:00,
2013-01-17 15:13:00,21.0,11.0,-100.00,NNE,26,7.0,10.0,64,0.00,,,0.00,100.000000,,2013-01-17 20:13:00,
2013-01-17 15:23:00,21.0,11.0,-100.00,NNE,26,7.0,10.0,64,0.00,,,0.00,100.000000,,2013-01-17 20:23:00,
2013-01-17 15:54:00,20.0,11.0,-100.00,NE,39,6.0,12.0,68,0.00,,,0.00,70.000000,,2013-01-17 20:54:00,
2013-01-17 16:03:00,20.0,11.0,-100.00,NE,39,6.0,12.0,68,0.00,,,0.00,70.000000,,2013-01-17 21:03:00,
2013-01-17 16:13:00,20.0,11.0,-100.00,NE,39,6.0,12.0,68,0.00,,,0.00,70.000000,,2013-01-17 21:13:00,
2013-01-17 16:23:00,20.0,11.0,-100.00,NE,39,6.0,12.0,68,0.00,,,0.00,70.000000,,2013-01-17 21:23:00,
2013-01-17 16:53:00,19.0,9.0,-100.00,NE,49,5.0,10.0,65,0.00,,,0.00,29.000000,,2013-01-17 21:53:00,
2013-01-17 17:04:00,19.0,9.0,-100.00,NE,49,5.0,10.0,65,0.00,,,0.00,29.000000,,2013-01-17 22:04:00,
2013-01-17 17:12:00,19.0,9.0,-100.00,NE,49,5.0,10.0,65,0.00,,,0.00,29.000000,,2013-01-17 22:12:00,
2013-01-17 17:23:00,19.0,9.0,-100.00,NE,49,5.0,10.0,65,0.00,,,0.00,29.000000,,2013-01-17 22:23:00,
2013-01-17 17:53:00,19.0,10.0,-100.00,ENE,69,6.0,9.0,67,0.00,,,0.00,6.000000,,2013-01-17 22:53:00,
2013-01-17 18:03:00,19.0,10.0,-100.00,ENE,69,6.0,9.0,67,0.00,,,0.00,6.000000,,2013-01-17 23:03:00,
2013-01-17 18:12:00,19.0,10.0,-100.00,ENE,69,6.0,9.0,67,0.00,,,0.00,6.000000,,2013-01-17 23:12:00,
2013-01-17 18:23:00,19.0,10.0,-100.00,ENE,69,6.0,9.0,67,0.00,,,0.00,6.000000,,2013-01-17 23:23:00,
2013-01-17 18:53:00,19.0,11.0,-100.00,East,84,4.0,8.0,70,0.00,,,0.00,0.000000,,2013-01-17 23:53:00,
2013-01-17 19:03:00,19.0,11.0,-100.00,East,84,4.0,8.0,70,0.00,,,0.00,0.000000,,2013-01-18 00:03:00,
2013-01-17 19:12:00,19.0,11.0,-100.00,East,84,4.0,8.0,70,0.00,,,0.00,0.000000,,2013-01-18 00:12:00,
2013-01-17 19:23:00,19.0,11.0,-100.00,East,84,4.0,8.0,70,0.00,,,0.00,0.000000,,2013-01-18 00:23:00,
2013-01-17 19:53:00,19.0,10.0,-100.00,ENE,57,6.0,10.0,67,0.00,,,0.00,0.000000,,2013-01-18 00:53:00,
2013-01-17 20:03:00,19.0,10.0,-100.00,ENE,57,6.0,10.0,67,0.00,,,0.00,0.000000,,2013-01-18 01:03:00,
2013-01-17 20:13:00,19.0,10.0,-100.00,ENE,57,6.0,10.0,67,0.00,,,0.00,0.000000,,2013-01-18 01:13:00,
2013-01-17 20:23:00,19.0,10.0,-100.00,ENE,57,6.0,10.0,67,0.00,,,0.00,0.000000,,2013-01-18 01:23:00,
2013-01-17 20:53:00,18.0,10.0,-100.00,NE,45,5.0,9.0,69,0.00,,,0.00,0.000000,,2013-01-18 01:53:00,
2013-01-17 21:03:00,18.0,10.0,-100.00,NE,45,5.0,9.0,69,0.00,,,0.00,0.000000,,2013-01-18 02:03:00,
2013-01-17 21:12:00,18.0,10.0,-100.00,NE,45,5.0,9.0,69,0.00,,,0.00,0.000000,,2013-01-18 02:12:00,
2013-01-17 21:22:00,18.0,10.0,-100.00,NE,45,5.0,9.0,69,0.00,,,0.00,0.000000,,2013-01-18 02:22:00,
2013-01-17 21:53:00,18.0,13.0,-100.00,ENE,57,7.0,11.0,79,0.00,,,0.00,0.000000,,2013-01-18 02:53:00,
2013-01-17 22:03:00,18.0,13.0,-100.00,ENE,57,7.0,11.0,79,0.00,,,0.00,0.000000,,2013-01-18 03:03:00,
2013-01-17 22:13:00,18.0,13.0,-100.00,ENE,57,7.0,11.0,79,0.00,,,0.00,0.000000,,2013-01-18 03:13:00,
2013-01-17 22:23:00,18.0,13.0,-100.00,ENE,57,7.0,11.0,79,0.00,,,0.00,0.000000,,2013-01-18 03:23:00,
2013-01-17 22:53:00,17.0,14.0,-100.00,NNE,33,6.0,13.0,86,0.00,,,0.00,0.000000,,2013-01-18 03:53:00,
2013-01-17 23:02:00,17.0,14.0,-100.00,NNE,33,6.0,13.0,86,0.00,,,0.00,0.000000,,2013-01-18 04:02:00,
2013-01-17 23:12:00,17.0,14.0,-100.00,NNE,33,6.0,13.0,86,0.00,,,0.00,0.000000,,2013-01-18 04:12:00,
2013-01-17 23:22:00,17.0,14.0,-100.00,NNE,33,6.0,13.0,86,0.00,,,0.00,0.000000,,2013-01-18 04:22:00,
2013-01-17 23:53:00,16.0,13.0,-100.00,NNE,32,6.0,12.0,86,0.00,,,0.00,0.000000,,2013-01-18 04:53:00,